Latest Coastal Weather Observations for Wilsons Promontory

IDT60701

Issued at 4:22 am EDT Saturday 25 February 2017 (issued every 10 minutes, with the page automatically refreshed every 10 minutes)

About coastal observations | Map of coastal stations | Coastal observations for TAS | Marine services | Other Formats
Station Details ID: 085096 Name: WILSONS PROMONTORY LIGHTHOUSE Lat: -39.13 Lon: 146.42 Height: 95.0 m
Data from the previous 72 hours. | See also: Recent months at Wilsons Promontory
Date/Time
EDT
Temp
°C
Wind Pressure Rain since
9am
mm
Weather Cloud Vis
km
Sea
Height
m
Swell
Dir  Spd
kts
Gust
kts
hPa Trend Height
m
Period
s
Dir
25/04:00am 14.7 SW 11 17 1023.0 - 0.0 - - - - - - -
25/03:30am 14.7 WSW 9 20 1023.0 - 0.0 - - - - - - -
25/03:00am 14.9 SW 9 18 1022.8 - 0.0 - - - - - - -
25/02:30am 15.0 SW 11 20 1023.1 - 0.0 - - - - - - -
25/02:00am 15.1 WSW 19 22 1023.3 - 0.0 - - - - - - -
25/01:30am 15.1 SW 18 22 1023.5 - 0.0 - - - - - - -
25/01:00am 15.1 WSW 20 22 1023.6 - 0.0 - - - - - - -
25/12:30am 15.2 WSW 19 24 1023.6 - 0.0 - - - - - - -
25/12:00am 15.4 WSW 21 25 1023.6 - 0.0 - - - - - - -
 
Date/Time
EDT
Temp
°C
Wind Pressure Rain since
9am
mm
Weather Cloud Vis
km
Sea
Height
m
Swell
Dir  Spd
kts
Gust
kts
hPa Trend Height
m
Period
s
Dir
24/11:30pm 15.4 WSW 23 26 1023.6 - 0.0 - - - - - - -
24/11:00pm 15.5 WSW 26 29 1023.6 - 0.0 - - - - - - -
24/10:30pm 15.7 WSW 20 28 1023.7 - 0.0 - - - - - - -
24/10:00pm 15.6 WSW 23 30 1023.6 - 0.0 - - - - - - -
24/09:30pm 15.8 WSW 27 31 1023.4 - 0.0 - - - - - - -
24/09:00pm 15.7 W 23 32 1023.0 - 0.0 - - - - - - -
24/08:35pm 15.8 W 20 30 1023.0 - 0.0 - - - - - - -
24/08:30pm 15.8 W 20 28 1023.1 - 0.0 - - - - - - -
24/08:00pm 15.9 W 21 28 1022.7 - 0.0 - - - - - - -
24/07:37pm 16.1 W 23 33 1022.7 - 0.0 - - - - - - -
24/07:30pm 16.1 WSW 26 34 1022.5 - 0.0 - - - - - - -
24/07:05pm 16.4 W 22 32 1022.6 - 0.0 - - - - - - -
24/07:00pm 16.4 W 22 30 1022.4 - 0.0 - - - - - - -
24/06:30pm 16.6 W 24 31 1022.3 - 0.0 - - - - - - -
24/06:09pm 16.6 W 23 34 1022.2 - 0.0 - - - - - - -
24/06:00pm 16.8 W 21 30 1022.2 - 0.0 - - - - - - -
24/05:30pm 17.0 W 20 29 1022.4 - 0.0 - - - - - - -
24/05:00pm 16.9 W 23 33 1022.3 - 0.0 - - - - - - -
24/04:59pm 16.9 W 23 33 1022.3 - 0.0 - - - - - - -
24/04:30pm 16.4 WSW 32 38 1022.0 - 0.0 - - - - - - -
24/04:27pm 16.3 WSW 34 38 1022.0 - 0.0 - - - - - - -
24/04:00pm 16.8 W 22 32 1022.4 - 0.0 - - - - - - -
24/03:30pm 16.9 W 23 33 1022.5 - 0.0 - - - - - - -
24/03:16pm 16.5 W 26 36 1022.6 - 0.0 - - - - - - -
24/03:09pm 16.2 WSW 33 36 1022.2 - 0.0 - - - - - - -
24/03:00pm 16.4 W 20 33 1022.4 - 0.0 - - - - - - -
24/02:35pm 16.4 W 20 31 1022.8 - 0.0 - - - - - - -
24/02:30pm 16.7 W 19 25 1022.9 - 0.0 - - - - - - -
24/02:22pm 16.6 W 19 35 1022.8 - 0.0 - - - - - - -
24/02:00pm 16.3 WSW 31 35 1022.6 - 0.0 - - - - - - -
24/01:30pm 16.1 WSW 26 35 1022.4 - 0.0 - - - - - - -
24/01:00pm 15.5 WSW 30 36 1022.7 - 0.0 - - - - - - -
24/12:50pm 15.4 WSW 34 37 1022.6 - 0.0 - - - - - - -
24/12:40pm 16.1 W 21 31 1023.1 - 0.0 - - - - - - -
24/12:30pm 15.9 WSW 27 33 1023.0 - 0.0 - - - - - - -
24/12:19pm 15.9 WSW 31 34 1022.9 - 0.0 - - - - - - -
24/12:08pm 16.0 W 19 32 1023.2 - 0.0 - - - - - - -
24/12:00pm 16.3 W 17 25 1023.1 - 0.0 - - - - - - -
24/11:30am 16.1 W 20 26 1023.4 - 0.0 - - - - - - -
24/11:00am 15.9 W 20 27 1023.4 - 0.0 - - - - - - -
24/10:34am 15.6 W 15 25 1023.4 - 0.0 - - - - - - -
24/10:30am 15.7 W 14 22 1023.6 - 0.0 - - - - - - -
24/10:03am 15.7 W 19 29 1023.4 - 0.0 - - - - - - -
24/10:00am 15.8 WSW 22 29 1023.4 - 0.0 - - - - - - -
24/09:30am 15.5 W 20 26 1023.0 - 0.0 - - - - - - -
24/09:00am 15.4 WSW 26 30 1022.4 - 0.0 - - - - - - -
24/08:30am 15.1 WSW 26 30 1022.4 - 0.0 - - - - - - -
24/08:00am 15.1 WSW 27 31 1022.0 - 0.0 - - - - - - -
24/07:30am 15.0 WSW 26 30 1021.8 - 0.0 - - - - - - -
24/07:00am 15.2 WSW 26 30 1021.5 - 0.0 - - - - - - -
24/06:30am 15.6 WSW 23 30 1021.1 - 0.0 - - - - - - -
24/06:19am 15.7 W 17 27 1021.0 - 0.0 - - - - - - -
24/06:00am 15.7 W 16 25 1020.9 - 0.0 - - - - - - -
24/05:42am 15.5 W 19 29 1020.9 - 0.0 - - - - - - -
24/05:30am 15.5 W 20 29 1020.9 - 0.0 - - - - - - -
24/05:25am 15.5 W 19 29 1020.7 - 0.0 - - - - - - -
24/05:00am 15.6 W 17 25 1020.6 - 0.0 - - - - - - -
24/04:51am 15.5 W 15 25 1020.5 - 0.0 - - - - - - -
24/04:30am 15.1 W 12 20 1020.9 - 0.0 - - - - - - -
24/04:00am 14.8 W 17 22 1021.0 - 0.0 - - - - - - -
24/03:31am 15.3 W 15 28 1020.7 - 0.0 - - - - - - -
24/03:30am 15.4 W 14 24 1020.8 - 0.0 - - - - - - -
24/03:13am 15.1 W 17 27 1021.1 - 0.0 - - - - - - -
24/03:00am 15.5 WSW 23 28 1020.7 - 0.0 - - - - - - -
24/02:43am 15.3 W 18 28 1020.8 - 0.0 - - - - - - -
24/02:30am 15.1 WSW 24 29 1020.8 - 0.0 - - - - - - -
24/02:00am 15.8 W 22 29 1020.7 - 0.0 - - - - - - -
24/01:30am 15.8 WSW 24 29 1020.9 - 0.0 - - - - - - -
24/01:09am 15.1 WSW 25 35 1020.9 - 0.0 - - - - - - -
24/01:00am 15.5 WSW 25 32 1020.6 - 0.0 - - - - - - -
24/12:33am 15.9 W 22 32 1020.8 - 0.0 - - - - - - -
24/12:30am 15.9 W 24 32 1020.7 - 0.0 - - - - - - -
24/12:16am 15.9 WSW 26 36 1020.6 - 0.0 - - - - - - -
24/12:00am 15.8 WSW 27 31 1020.4 - 0.0 - - - - - - -
 
Date/Time
EDT
Temp
°C
Wind Pressure Rain since
9am
mm
Weather Cloud Vis
km
Sea
Height
m
Swell
Dir  Spd
kts
Gust
kts
hPa Trend Height
m
Period
s
Dir
23/11:30pm 16.2 WSW 31 36 1020.3 - 0.0 - - - - - - -
23/11:00pm 16.3 WSW 30 33 1020.3 - 0.0 - - - - - - -
23/10:30pm 16.6 WSW 32 36 1019.9 - 0.0 - - - - - - -
23/10:00pm 16.5 W 25 34 1019.9 - 0.0 - - - - - - -
23/09:30pm 16.6 WSW 29 36 1019.5 - 0.0 - - - - - - -
23/09:00pm 16.6 W 23 29 1019.2 - 0.0 - - - - - - -
23/08:30pm 17.4 W 24 34 1018.8 - 0.0 - - - - - - -
23/08:14pm 17.5 W 27 37 1018.4 - 0.0 - - - - - - -
23/08:00pm 17.4 W 28 36 1018.2 - 0.0 - - - - - - -
23/07:49pm 17.4 W 27 37 1017.9 - 0.0 - - - - - - -
23/07:30pm 17.6 W 24 33 1017.9 - 0.0 - - - - - - -
23/07:00pm 18.0 W 24 30 1018.0 - 0.0 - - - - - - -
23/06:30pm 18.4 W 20 29 1017.8 - 0.0 - - - - - - -
23/06:12pm 18.7 W 19 30 1017.5 - 0.0 - - - - - - -
23/06:00pm 18.6 W 18 26 1017.3 - 0.0 - - - - - - -
23/05:30pm 18.8 W 18 31 1017.2 - 0.0 - - - - - - -
23/05:09pm 18.8 W 24 35 1016.7 - 0.0 - - - - - - -
23/05:00pm 19.0 W 23 31 1016.9 - 0.0 - - - - - - -
23/04:35pm 19.0 W 23 33 1016.7 - 0.0 - - - - - - -
23/04:30pm 19.2 W 22 31 1016.8 - 0.0 - - - - - - -
23/04:00pm 19.4 W 19 35 1016.8 - 0.0 - - - - - - -
23/03:32pm 19.5 W 20 30 1016.5 - 0.0 - - - - - - -
23/03:30pm 19.5 W 20 29 1016.6 - 0.0 - - - - - - -
23/03:00pm 19.1 W 22 34 1016.2 - 0.0 - - - - - - -
23/02:31pm 19.1 W 28 38 1016.1 - 0.0 - - - - - - -
23/02:30pm 19.3 W 28 37 1016.3 - 0.0 - - - - - - -
23/02:01pm 19.2 W 25 35 1016.5 - 0.0 - - - - - - -
23/02:00pm 19.4 W 26 35 1016.5 - 0.0 - - - - - - -
23/01:30pm 19.8 W 22 33 1016.7 - 0.0 - - - - - - -
23/01:02pm 19.7 W 23 33 1016.5 - 0.0 - - - - - - -
23/01:00pm 19.6 W 22 31 1016.5 - 0.0 - - - - - - -
23/12:30pm 19.3 W 22 38 1016.6 - 0.0 - - - - - - -
23/11:30am 20.1 W 21 31 1015.9 - 0.0 - - - - - - -
23/11:00am 19.8 W 27 39 1015.4 - 0.0 - - - - - - -
23/10:58am 19.8 W 27 39 1015.5 - 0.0 - - - - - - -
23/10:57am 19.7 W 30 39 1015.3 - 0.0 - - - - - - -
23/10:30am 20.0 W 19 33 1015.2 - 0.0 - - - - - - -
23/10:21am 20.3 W 20 33 1015.3 - 0.0 - - - - - - -
23/10:00am 20.2 W 23 32 1015.1 - 0.0 - - - - - - -
23/09:30am 19.5 W 25 37 1014.4 - 0.0 - - - - - - -
23/09:00am 19.1 W 28 38 1013.7 - 0.0 - - - - - - -
23/08:30am 18.8 W 29 40 1013.5 - 0.0 - - - - - - -
23/08:00am 18.6 W 24 37 1013.1 - 0.0 - - - - - - -
23/07:30am 18.6 W 19 30 1013.1 - 0.0 - - - - - - -
23/07:07am 18.3 W 19 29 1012.5 - 0.0 - - - - - - -
23/07:00am 18.3 W 20 28 1012.5 - 0.0 - - - - - - -
23/06:30am 18.6 W 24 28 1012.0 - 0.0 - - - - - - -
23/06:00am 18.7 W 21 27 1011.3 - 0.0 - - - - - - -
23/05:30am 18.9 W 23 28 1011.2 - 0.0 - - - - - - -
23/05:00am 19.0 W 23 30 1011.0 - 0.0 - - - - - - -
23/04:30am 19.0 W 21 26 1010.9 - 0.0 - - - - - - -
23/04:00am 19.1 W 20 27 1010.8 - 0.0 - - - - - - -
23/03:30am 19.2 W 23 30 1010.6 - 0.0 - - - - - - -
23/03:00am 19.5 W 27 34 1009.9 - 0.0 - - - - - - -
23/02:30am 19.7 W 28 38 1009.9 - 0.0 - - - - - - -
23/02:12am 20.1 W 29 39 1010.0 - 0.0 - - - - - - -
23/02:00am 20.1 W 29 37 1009.7 - 0.0 - - - - - - -
23/01:30am 21.3 W 28 37 1009.6 - 0.0 - - - - - - -
23/01:00am 21.6 WNW 27 41 1009.3 - 0.0 - - - - - - -
23/12:54am 22.5 WNW 31 41 1009.2 - 0.0 - - - - - - -
23/12:47am 23.0 WNW 34 40 1008.6 - 0.0 - - - - - - -
23/12:44am 22.3 WNW 22 32 1009.1 - 0.0 - - - - - - -
23/12:42am 22.8 WNW 24 32 1009.0 - 0.0 - - - - - - -
23/12:30am 23.7 NNE 13 18 1008.5 - 0.0 - - - - - - -
23/12:00am 23.7 NNE 17 27 1008.5 - 0.0 - - - - - - -
 
Date/Time
EDT
Temp
°C
Wind Pressure Rain since
9am
mm
Weather Cloud Vis
km
Sea
Height
m
Swell
Dir  Spd
kts
Gust
kts
hPa Trend Height
m
Period
s
Dir
22/11:30pm 23.2 NNE 15 26 1009.2 - 0.0 - - - - - - -
22/11:29pm 23.2 NNE 15 26 1009.2 - 0.0 - - - - - - -
22/11:00pm 20.7 NNE 16 20 1009.8 - 0.0 - - - - - - -
22/10:30pm 21.0 NNE 17 21 1010.2 - 0.0 - - - - - - -
22/10:00pm 20.8 NNE 18 23 1010.4 - 0.0 - - - - - - -
22/09:30pm 20.3 NNE 18 24 1010.6 - 0.0 - - - - - - -
22/09:00pm 19.5 NNE 18 25 1010.4 - 0.0 - - - - - - -
22/08:30pm 19.4 NNE 17 21 1010.7 - 0.0 - - - - - - -
22/08:00pm 19.5 NNE 16 21 1010.7 - 0.0 - - - - - - -
22/07:30pm 19.0 NNE 15 20 1010.5 - 0.0 - - - - - - -
22/07:00pm 19.2 NE 14 16 1010.8 - 0.0 - - - - - - -
22/06:30pm 19.4 NNE 14 16 1010.9 - 0.0 - - - - - - -
22/06:00pm 19.4 NNE 14 16 1010.9 - 0.0 - - - - - - -
22/05:30pm 19.2 NNE 13 16 1011.3 - 0.0 - - - - - - -
22/05:00pm 18.9 NE 14 16 1011.4 - 0.0 - - - - - - -
22/04:30pm 19.4 NE 14 17 1011.7 - 0.0 - - - - - - -
22/04:00pm 19.5 NNE 15 17 1012.1 - 0.0 - - - - - - -
22/03:30pm 19.8 NNE 15 18 1012.7 - 0.0 - - - - - - -
22/03:00pm 20.2 NNE 14 18 1012.9 - 0.0 - - - - - - -
22/02:30pm 20.2 NNE 15 17 1013.4 - 0.0 - - - - - - -
22/02:00pm 20.5 NE 13 16 1013.9 - 0.0 - - - - - - -
22/01:30pm 20.2 NE 12 15 1014.2 - 0.0 - - - - - - -
22/01:00pm 20.1 NNE 15 18 1014.6 - 0.0 - - - - - - -
22/12:30pm 20.1 NE 14 16 1014.9 - 0.0 - - - - - - -
22/12:00pm 20.0 NNE 16 19 1015.0 - 0.0 - - - - - - -
22/11:30am 20.0 NNE 16 19 1015.4 - 0.0 - - - - - - -
22/11:00am 20.3 NNE 15 19 1015.7 - 0.0 - - - - - - -
22/10:30am 20.2 NNE 14 19 1015.9 - 0.0 - - - - - - -
22/10:00am 19.7 NNE 15 19 1016.1 - 0.0 - - - - - - -
22/09:30am 19.3 N 14 21 1016.4 - 0.0 - - - - - - -
22/09:00am 18.4 NNE 14 20 1016.3 - 0.0 - - - - - - -
22/08:30am 18.2 NNE 14 23 1016.4 - 0.0 - - - - - - -
22/08:00am 17.4 NNE 15 21 1016.5 - 0.0 - - - - - - -
22/07:30am 16.8 NNE 14 22 1016.4 - 0.0 - - - - - - -
22/07:00am 15.9 NNE 15 21 1016.4 - 0.0 - - - - - - -
22/06:30am 15.8 NNE 17 22 1016.1 - 0.0 - - - - - - -
22/06:00am 15.7 NNE 15 20 1016.1 - 0.0 - - - - - - -
22/05:30am 15.8 NNE 16 21 1016.4 - 0.0 - - - - - - -
22/05:18am 15.7 NNE 15 25 1016.3 - 0.0 - - - - - - -
22/05:00am 15.8 NNE 15 22 1016.4 - 0.0 - - - - - - -
22/04:30am 15.8 NNE 15 22 1016.5 - 0.0 - - - - - - -

Other Formats:

Comma delimited format used in spreadsheet applications
http://www.bom.gov.au/fwo/IDT60701/IDT60701.94893.axf

JavaScript Object Notation format (JSON) in row-major order
http://www.bom.gov.au/fwo/IDT60701/IDT60701.94893.json